sensor_id;sensor_type;location;lat;lon;timestamp;P1;durP1;ratioP1;P2;durP2;ratioP2
20142;SDS011;10509;46.476;7.134;2023-07-29T00:01:00;4.87;;;3.40;;
20142;SDS011;10509;46.476;7.134;2023-07-29T00:03:26;3.60;;;3.30;;
20142;SDS011;10509;46.476;7.134;2023-07-29T00:05:55;3.67;;;3.40;;
20142;SDS011;10509;46.476;7.134;2023-07-29T00:08:21;3.40;;;3.10;;
20142;SDS011;10509;46.476;7.134;2023-07-29T00:10:47;4.23;;;3.10;;
20142;SDS011;10509;46.476;7.134;2023-07-29T00:13:13;3.27;;;2.97;;
20142;SDS011;10509;46.476;7.134;2023-07-29T00:15:39;3.10;;;2.90;;
20142;SDS011;10509;46.476;7.134;2023-07-29T00:18:05;4.33;;;3.10;;
20142;SDS011;10509;46.476;7.134;2023-07-29T00:20:31;3.10;;;2.80;;
20142;SDS011;10509;46.476;7.134;2023-07-29T00:22:57;3.20;;;2.77;;
20142;SDS011;10509;46.476;7.134;2023-07-29T00:25:24;3.17;;;2.90;;
20142;SDS011;10509;46.476;7.134;2023-07-29T00:27:50;3.23;;;2.97;;
20142;SDS011;10509;46.476;7.134;2023-07-29T00:30:16;3.20;;;2.90;;
20142;SDS011;10509;46.476;7.134;2023-07-29T00:32:42;3.17;;;2.90;;
20142;SDS011;10509;46.476;7.134;2023-07-29T00:35:08;3.20;;;3.00;;
20142;SDS011;10509;46.476;7.134;2023-07-29T00:37:34;3.17;;;2.87;;
20142;SDS011;10509;46.476;7.134;2023-07-29T00:40:02;3.13;;;2.90;;
20142;SDS011;10509;46.476;7.134;2023-07-29T00:42:28;3.33;;;3.03;;
20142;SDS011;10509;46.476;7.134;2023-07-29T00:44:54;4.20;;;3.40;;
20142;SDS011;10509;46.476;7.134;2023-07-29T00:47:20;3.70;;;3.40;;
20142;SDS011;10509;46.476;7.134;2023-07-29T00:49:47;3.50;;;3.20;;
20142;SDS011;10509;46.476;7.134;2023-07-29T00:52:13;4.30;;;3.50;;
20142;SDS011;10509;46.476;7.134;2023-07-29T00:54:39;3.30;;;3.00;;
20142;SDS011;10509;46.476;7.134;2023-07-29T00:57:08;3.23;;;3.03;;
20142;SDS011;10509;46.476;7.134;2023-07-29T00:59:35;3.10;;;2.80;;
20142;SDS011;10509;46.476;7.134;2023-07-29T01:02:02;3.30;;;3.10;;
20142;SDS011;10509;46.476;7.134;2023-07-29T01:04:28;3.70;;;3.40;;
20142;SDS011;10509;46.476;7.134;2023-07-29T01:09:36;3.43;;;3.13;;
20142;SDS011;10509;46.476;7.134;2023-07-29T01:14:40;3.77;;;3.30;;
20142;SDS011;10509;46.476;7.134;2023-07-29T01:17:08;4.07;;;3.50;;
20142;SDS011;10509;46.476;7.134;2023-07-29T01:22:19;3.60;;;3.30;;
20142;SDS011;10509;46.476;7.134;2023-07-29T01:24:47;3.77;;;3.47;;
20142;SDS011;10509;46.476;7.134;2023-07-29T01:27:13;4.07;;;3.20;;
20142;SDS011;10509;46.476;7.134;2023-07-29T01:29:39;3.87;;;3.50;;
20142;SDS011;10509;46.476;7.134;2023-07-29T01:32:14;3.93;;;3.63;;
20142;SDS011;10509;46.476;7.134;2023-07-29T01:34:47;3.63;;;3.33;;
20142;SDS011;10509;46.476;7.134;2023-07-29T01:37:15;3.63;;;3.33;;
20142;SDS011;10509;46.476;7.134;2023-07-29T01:39:42;4.33;;;3.30;;
20142;SDS011;10509;46.476;7.134;2023-07-29T01:42:09;4.00;;;3.60;;
20142;SDS011;10509;46.476;7.134;2023-07-29T01:44:35;3.90;;;3.60;;
20142;SDS011;10509;46.476;7.134;2023-07-29T01:47:02;3.90;;;3.60;;
20142;SDS011;10509;46.476;7.134;2023-07-29T01:49:28;4.10;;;3.80;;
20142;SDS011;10509;46.476;7.134;2023-07-29T01:51:54;3.50;;;3.20;;
20142;SDS011;10509;46.476;7.134;2023-07-29T01:54:20;3.57;;;3.37;;
20142;SDS011;10509;46.476;7.134;2023-07-29T01:56:46;3.47;;;3.17;;
20142;SDS011;10509;46.476;7.134;2023-07-29T01:59:12;3.50;;;3.20;;
20142;SDS011;10509;46.476;7.134;2023-07-29T02:01:39;3.50;;;3.20;;
20142;SDS011;10509;46.476;7.134;2023-07-29T02:04:05;3.87;;;3.37;;
20142;SDS011;10509;46.476;7.134;2023-07-29T02:06:31;3.70;;;3.40;;
20142;SDS011;10509;46.476;7.134;2023-07-29T02:08:57;3.50;;;3.30;;
20142;SDS011;10509;46.476;7.134;2023-07-29T02:11:23;3.60;;;3.40;;
20142;SDS011;10509;46.476;7.134;2023-07-29T02:13:52;3.23;;;2.87;;
20142;SDS011;10509;46.476;7.134;2023-07-29T02:16:18;3.77;;;3.47;;
20142;SDS011;10509;46.476;7.134;2023-07-29T02:18:44;3.23;;;3.03;;
20142;SDS011;10509;46.476;7.134;2023-07-29T02:21:10;3.50;;;3.30;;
20142;SDS011;10509;46.476;7.134;2023-07-29T02:23:36;3.33;;;3.13;;
20142;SDS011;10509;46.476;7.134;2023-07-29T02:26:02;3.50;;;3.20;;
20142;SDS011;10509;46.476;7.134;2023-07-29T02:28:28;3.90;;;3.60;;
20142;SDS011;10509;46.476;7.134;2023-07-29T02:33:39;3.57;;;3.30;;
20142;SDS011;10509;46.476;7.134;2023-07-29T02:36:05;3.90;;;3.13;;
20142;SDS011;10509;46.476;7.134;2023-07-29T02:38:31;3.70;;;3.40;;
20142;SDS011;10509;46.476;7.134;2023-07-29T02:40:57;3.60;;;3.40;;
20142;SDS011;10509;46.476;7.134;2023-07-29T02:43:23;3.67;;;3.40;;
20142;SDS011;10509;46.476;7.134;2023-07-29T02:45:49;3.90;;;3.60;;
20142;SDS011;10509;46.476;7.134;2023-07-29T02:48:15;3.67;;;3.37;;
20142;SDS011;10509;46.476;7.134;2023-07-29T02:50:41;3.93;;;3.63;;
20142;SDS011;10509;46.476;7.134;2023-07-29T02:53:07;4.03;;;3.73;;
20142;SDS011;10509;46.476;7.134;2023-07-29T02:55:33;3.57;;;3.20;;
20142;SDS011;10509;46.476;7.134;2023-07-29T02:57:59;4.07;;;3.67;;
20142;SDS011;10509;46.476;7.134;2023-07-29T03:00:25;3.70;;;3.40;;
20142;SDS011;10509;46.476;7.134;2023-07-29T03:02:51;3.43;;;3.20;;
20142;SDS011;10509;46.476;7.134;2023-07-29T03:05:17;3.87;;;3.53;;
20142;SDS011;10509;46.476;7.134;2023-07-29T03:07:43;3.20;;;2.97;;
20142;SDS011;10509;46.476;7.134;2023-07-29T03:10:10;3.27;;;2.97;;
20142;SDS011;10509;46.476;7.134;2023-07-29T03:12:36;3.63;;;3.33;;
20142;SDS011;10509;46.476;7.134;2023-07-29T03:15:03;4.73;;;3.33;;
20142;SDS011;10509;46.476;7.134;2023-07-29T03:17:29;3.70;;;3.40;;
20142;SDS011;10509;46.476;7.134;2023-07-29T03:19:55;3.87;;;3.57;;
20142;SDS011;10509;46.476;7.134;2023-07-29T03:22:21;3.50;;;3.20;;
20142;SDS011;10509;46.476;7.134;2023-07-29T03:24:47;3.93;;;3.60;;
20142;SDS011;10509;46.476;7.134;2023-07-29T03:27:13;3.10;;;2.90;;
20142;SDS011;10509;46.476;7.134;2023-07-29T03:29:41;3.23;;;3.03;;
20142;SDS011;10509;46.476;7.134;2023-07-29T03:32:07;3.80;;;3.50;;
20142;SDS011;10509;46.476;7.134;2023-07-29T03:34:33;3.43;;;3.17;;
20142;SDS011;10509;46.476;7.134;2023-07-29T03:37:00;3.77;;;3.47;;
20142;SDS011;10509;46.476;7.134;2023-07-29T03:39:26;3.50;;;3.27;;
20142;SDS011;10509;46.476;7.134;2023-07-29T03:41:52;3.20;;;3.00;;
20142;SDS011;10509;46.476;7.134;2023-07-29T03:44:18;3.40;;;3.20;;
20142;SDS011;10509;46.476;7.134;2023-07-29T03:46:44;3.83;;;3.27;;
20142;SDS011;10509;46.476;7.134;2023-07-29T03:49:10;3.43;;;3.20;;
20142;SDS011;10509;46.476;7.134;2023-07-29T03:51:36;3.70;;;3.40;;
20142;SDS011;10509;46.476;7.134;2023-07-29T03:54:02;3.50;;;3.20;;
20142;SDS011;10509;46.476;7.134;2023-07-29T03:56:28;3.20;;;3.00;;
20142;SDS011;10509;46.476;7.134;2023-07-29T03:59:01;3.10;;;2.90;;
20142;SDS011;10509;46.476;7.134;2023-07-29T04:01:28;3.40;;;3.20;;
20142;SDS011;10509;46.476;7.134;2023-07-29T04:03:54;4.90;;;4.57;;
20142;SDS011;10509;46.476;7.134;2023-07-29T04:06:20;3.67;;;3.47;;
20142;SDS011;10509;46.476;7.134;2023-07-29T04:08:46;3.70;;;3.40;;
20142;SDS011;10509;46.476;7.134;2023-07-29T04:11:12;3.63;;;3.33;;
20142;SDS011;10509;46.476;7.134;2023-07-29T04:13:38;5.00;;;3.73;;
20142;SDS011;10509;46.476;7.134;2023-07-29T04:16:04;3.97;;;3.67;;
20142;SDS011;10509;46.476;7.134;2023-07-29T04:18:30;3.60;;;3.30;;
20142;SDS011;10509;46.476;7.134;2023-07-29T04:20:56;3.43;;;3.23;;
20142;SDS011;10509;46.476;7.134;2023-07-29T04:23:22;4.00;;;3.70;;
20142;SDS011;10509;46.476;7.134;2023-07-29T04:25:48;3.50;;;3.27;;
20142;SDS011;10509;46.476;7.134;2023-07-29T04:28:15;4.20;;;3.90;;
20142;SDS011;10509;46.476;7.134;2023-07-29T04:30:41;4.37;;;4.00;;
20142;SDS011;10509;46.476;7.134;2023-07-29T04:33:07;3.90;;;3.60;;
20142;SDS011;10509;46.476;7.134;2023-07-29T04:35:33;3.63;;;3.43;;
20142;SDS011;10509;46.476;7.134;2023-07-29T04:37:59;3.47;;;3.17;;
20142;SDS011;10509;46.476;7.134;2023-07-29T04:40:25;4.23;;;3.83;;
20142;SDS011;10509;46.476;7.134;2023-07-29T04:42:51;3.93;;;3.67;;
20142;SDS011;10509;46.476;7.134;2023-07-29T04:45:17;3.80;;;3.50;;
20142;SDS011;10509;46.476;7.134;2023-07-29T04:47:43;3.83;;;3.63;;
20142;SDS011;10509;46.476;7.134;2023-07-29T04:50:09;4.30;;;3.33;;
20142;SDS011;10509;46.476;7.134;2023-07-29T04:52:35;3.90;;;3.60;;
20142;SDS011;10509;46.476;7.134;2023-07-29T04:55:01;3.33;;;3.13;;
20142;SDS011;10509;46.476;7.134;2023-07-29T04:57:27;3.83;;;3.53;;
20142;SDS011;10509;46.476;7.134;2023-07-29T04:59:54;4.07;;;3.70;;
20142;SDS011;10509;46.476;7.134;2023-07-29T05:02:20;4.53;;;4.13;;
20142;SDS011;10509;46.476;7.134;2023-07-29T05:04:46;3.93;;;3.63;;
20142;SDS011;10509;46.476;7.134;2023-07-29T05:07:12;4.10;;;3.80;;
20142;SDS011;10509;46.476;7.134;2023-07-29T05:09:38;3.63;;;3.23;;
20142;SDS011;10509;46.476;7.134;2023-07-29T05:12:04;3.97;;;3.67;;
20142;SDS011;10509;46.476;7.134;2023-07-29T05:14:30;3.90;;;3.70;;
20142;SDS011;10509;46.476;7.134;2023-07-29T05:16:56;3.53;;;3.23;;
20142;SDS011;10509;46.476;7.134;2023-07-29T05:19:22;3.67;;;3.27;;
20142;SDS011;10509;46.476;7.134;2023-07-29T05:21:48;3.90;;;3.60;;
20142;SDS011;10509;46.476;7.134;2023-07-29T05:24:14;3.40;;;3.20;;
20142;SDS011;10509;46.476;7.134;2023-07-29T05:26:40;4.20;;;3.90;;
20142;SDS011;10509;46.476;7.134;2023-07-29T05:29:06;4.23;;;3.83;;
20142;SDS011;10509;46.476;7.134;2023-07-29T05:31:32;4.07;;;3.70;;
20142;SDS011;10509;46.476;7.134;2023-07-29T05:33:58;4.10;;;3.80;;
20142;SDS011;10509;46.476;7.134;2023-07-29T05:36:24;4.03;;;3.70;;
20142;SDS011;10509;46.476;7.134;2023-07-29T05:38:51;3.90;;;3.43;;
20142;SDS011;10509;46.476;7.134;2023-07-29T05:41:17;3.50;;;3.17;;
20142;SDS011;10509;46.476;7.134;2023-07-29T05:43:43;3.80;;;3.50;;
20142;SDS011;10509;46.476;7.134;2023-07-29T05:46:10;4.03;;;3.73;;
20142;SDS011;10509;46.476;7.134;2023-07-29T05:48:36;3.53;;;3.33;;
20142;SDS011;10509;46.476;7.134;2023-07-29T05:51:02;3.37;;;3.17;;
20142;SDS011;10509;46.476;7.134;2023-07-29T05:53:30;3.90;;;3.10;;
20142;SDS011;10509;46.476;7.134;2023-07-29T05:55:56;3.57;;;3.27;;
20142;SDS011;10509;46.476;7.134;2023-07-29T05:58:22;3.93;;;3.63;;
20142;SDS011;10509;46.476;7.134;2023-07-29T06:00:48;3.97;;;3.67;;
20142;SDS011;10509;46.476;7.134;2023-07-29T06:03:14;4.93;;;3.50;;
20142;SDS011;10509;46.476;7.134;2023-07-29T06:05:40;8.23;;;3.47;;
20142;SDS011;10509;46.476;7.134;2023-07-29T06:08:06;4.15;;;3.75;;
20142;SDS011;10509;46.476;7.134;2023-07-29T06:10:33;3.63;;;3.33;;
20142;SDS011;10509;46.476;7.134;2023-07-29T06:13:00;3.87;;;3.37;;
20142;SDS011;10509;46.476;7.134;2023-07-29T06:15:26;4.47;;;3.80;;
20142;SDS011;10509;46.476;7.134;2023-07-29T06:17:52;3.50;;;3.30;;
20142;SDS011;10509;46.476;7.134;2023-07-29T06:20:18;3.90;;;3.60;;
20142;SDS011;10509;46.476;7.134;2023-07-29T06:22:44;4.57;;;3.97;;
20142;SDS011;10509;46.476;7.134;2023-07-29T06:25:10;4.10;;;3.80;;
20142;SDS011;10509;46.476;7.134;2023-07-29T06:27:36;3.67;;;3.37;;
20142;SDS011;10509;46.476;7.134;2023-07-29T06:30:02;3.90;;;3.47;;
20142;SDS011;10509;46.476;7.134;2023-07-29T06:32:28;4.13;;;3.50;;
20142;SDS011;10509;46.476;7.134;2023-07-29T06:34:54;3.77;;;3.47;;
20142;SDS011;10509;46.476;7.134;2023-07-29T06:37:20;4.20;;;3.87;;
20142;SDS011;10509;46.476;7.134;2023-07-29T06:39:46;3.60;;;3.30;;
20142;SDS011;10509;46.476;7.134;2023-07-29T06:42:12;4.43;;;4.03;;
20142;SDS011;10509;46.476;7.134;2023-07-29T06:44:39;4.07;;;3.80;;
20142;SDS011;10509;46.476;7.134;2023-07-29T06:47:05;4.77;;;4.37;;
20142;SDS011;10509;46.476;7.134;2023-07-29T06:49:32;5.30;;;4.90;;
20142;SDS011;10509;46.476;7.134;2023-07-29T06:51:58;5.50;;;5.10;;
20142;SDS011;10509;46.476;7.134;2023-07-29T06:54:24;4.43;;;4.13;;
20142;SDS011;10509;46.476;7.134;2023-07-29T06:56:53;4.00;;;3.70;;
20142;SDS011;10509;46.476;7.134;2023-07-29T06:59:19;4.67;;;4.07;;
20142;SDS011;10509;46.476;7.134;2023-07-29T07:01:45;7.17;;;6.67;;
20142;SDS011;10509;46.476;7.134;2023-07-29T07:04:11;4.27;;;3.97;;
20142;SDS011;10509;46.476;7.134;2023-07-29T07:06:37;4.10;;;3.70;;
20142;SDS011;10509;46.476;7.134;2023-07-29T07:09:03;4.20;;;3.90;;
20142;SDS011;10509;46.476;7.134;2023-07-29T07:11:29;4.43;;;3.92;;
20142;SDS011;10509;46.476;7.134;2023-07-29T07:13:55;3.63;;;3.33;;
20142;SDS011;10509;46.476;7.134;2023-07-29T07:16:21;5.10;;;3.87;;
20142;SDS011;10509;46.476;7.134;2023-07-29T07:18:47;4.47;;;4.00;;
20142;SDS011;10509;46.476;7.134;2023-07-29T07:21:13;5.15;;;3.50;;
20142;SDS011;10509;46.476;7.134;2023-07-29T07:23:39;3.15;;;2.95;;
20142;SDS011;10509;46.476;7.134;2023-07-29T07:26:05;7.28;;;4.10;;
20142;SDS011;10509;46.476;7.134;2023-07-29T07:28:31;5.68;;;3.65;;
20142;SDS011;10509;46.476;7.134;2023-07-29T07:30:57;4.60;;;4.20;;
20142;SDS011;10509;46.476;7.134;2023-07-29T07:33:24;4.18;;;3.88;;
20142;SDS011;10509;46.476;7.134;2023-07-29T07:35:50;3.90;;;3.60;;
20142;SDS011;10509;46.476;7.134;2023-07-29T07:38:16;4.05;;;3.75;;
20142;SDS011;10509;46.476;7.134;2023-07-29T07:40:42;3.70;;;3.33;;
20142;SDS011;10509;46.476;7.134;2023-07-29T07:43:08;4.15;;;3.78;;
20142;SDS011;10509;46.476;7.134;2023-07-29T07:45:34;4.30;;;3.63;;
20142;SDS011;10509;46.476;7.134;2023-07-29T07:48:00;8.05;;;3.97;;
20142;SDS011;10509;46.476;7.134;2023-07-29T07:50:29;7.15;;;3.83;;
20142;SDS011;10509;46.476;7.134;2023-07-29T07:52:55;10.52;;;4.28;;
20142;SDS011;10509;46.476;7.134;2023-07-29T07:55:21;4.00;;;3.60;;
20142;SDS011;10509;46.476;7.134;2023-07-29T07:57:47;4.20;;;3.90;;
20142;SDS011;10509;46.476;7.134;2023-07-29T08:00:13;3.80;;;3.50;;
20142;SDS011;10509;46.476;7.134;2023-07-29T08:02:40;4.45;;;4.15;;
20142;SDS011;10509;46.476;7.134;2023-07-29T08:05:06;4.00;;;3.70;;
20142;SDS011;10509;46.476;7.134;2023-07-29T08:07:33;4.05;;;3.75;;
20142;SDS011;10509;46.476;7.134;2023-07-29T08:09:59;4.00;;;3.70;;
20142;SDS011;10509;46.476;7.134;2023-07-29T08:12:25;4.13;;;3.83;;
20142;SDS011;10509;46.476;7.134;2023-07-29T08:14:51;4.30;;;3.90;;
20142;SDS011;10509;46.476;7.134;2023-07-29T08:17:17;4.72;;;4.18;;
20142;SDS011;10509;46.476;7.134;2023-07-29T08:19:43;3.47;;;3.17;;
20142;SDS011;10509;46.476;7.134;2023-07-29T08:22:09;4.00;;;3.58;;
20142;SDS011;10509;46.476;7.134;2023-07-29T08:24:35;3.90;;;3.60;;
20142;SDS011;10509;46.476;7.134;2023-07-29T08:27:01;5.22;;;4.35;;
20142;SDS011;10509;46.476;7.134;2023-07-29T08:29:27;4.93;;;4.53;;
20142;SDS011;10509;46.476;7.134;2023-07-29T08:31:53;6.65;;;3.78;;
20142;SDS011;10509;46.476;7.134;2023-07-29T08:34:20;4.22;;;3.88;;
20142;SDS011;10509;46.476;7.134;2023-07-29T08:36:46;5.15;;;3.90;;
20142;SDS011;10509;46.476;7.134;2023-07-29T08:39:12;3.90;;;3.50;;
20142;SDS011;10509;46.476;7.134;2023-07-29T08:44:26;3.58;;;3.03;;
20142;SDS011;10509;46.476;7.134;2023-07-29T08:46:53;4.10;;;3.22;;
20142;SDS011;10509;46.476;7.134;2023-07-29T08:49:20;3.42;;;3.22;;
20142;SDS011;10509;46.476;7.134;2023-07-29T08:51:48;3.75;;;3.40;;
20142;SDS011;10509;46.476;7.134;2023-07-29T08:54:14;3.25;;;3.05;;
20142;SDS011;10509;46.476;7.134;2023-07-29T08:56:41;4.07;;;3.17;;
20142;SDS011;10509;46.476;7.134;2023-07-29T08:59:08;10.77;;;5.85;;
20142;SDS011;10509;46.476;7.134;2023-07-29T09:01:35;6.88;;;4.07;;
20142;SDS011;10509;46.476;7.134;2023-07-29T09:04:02;4.05;;;3.22;;
20142;SDS011;10509;46.476;7.134;2023-07-29T09:06:28;3.45;;;2.95;;
20142;SDS011;10509;46.476;7.134;2023-07-29T09:08:54;3.15;;;2.85;;
20142;SDS011;10509;46.476;7.134;2023-07-29T09:11:23;3.75;;;2.78;;
20142;SDS011;10509;46.476;7.134;2023-07-29T09:13:49;2.80;;;2.53;;
20142;SDS011;10509;46.476;7.134;2023-07-29T09:16:15;2.58;;;2.38;;
20142;SDS011;10509;46.476;7.134;2023-07-29T09:18:41;3.15;;;2.40;;
20142;SDS011;10509;46.476;7.134;2023-07-29T09:21:08;4.45;;;2.90;;
20142;SDS011;10509;46.476;7.134;2023-07-29T09:23:43;3.50;;;2.75;;
20142;SDS011;10509;46.476;7.134;2023-07-29T09:26:09;3.95;;;3.60;;
20142;SDS011;10509;46.476;7.134;2023-07-29T09:28:36;4.40;;;3.97;;
20142;SDS011;10509;46.476;7.134;2023-07-29T09:31:02;2.88;;;2.40;;
20142;SDS011;10509;46.476;7.134;2023-07-29T09:33:29;4.85;;;2.67;;
20142;SDS011;10509;46.476;7.134;2023-07-29T09:35:56;3.85;;;2.22;;
20142;SDS011;10509;46.476;7.134;2023-07-29T09:38:26;2.03;;;1.80;;
20142;SDS011;10509;46.476;7.134;2023-07-29T09:40:54;3.78;;;2.22;;
20142;SDS011;10509;46.476;7.134;2023-07-29T09:43:20;3.80;;;1.98;;
20142;SDS011;10509;46.476;7.134;2023-07-29T09:45:51;3.88;;;3.40;;
20142;SDS011;10509;46.476;7.134;2023-07-29T09:48:19;2.90;;;2.63;;
20142;SDS011;10509;46.476;7.134;2023-07-29T09:50:46;2.90;;;2.60;;
20142;SDS011;10509;46.476;7.134;2023-07-29T09:53:12;5.55;;;3.63;;
20142;SDS011;10509;46.476;7.134;2023-07-29T09:55:40;2.88;;;2.50;;
20142;SDS011;10509;46.476;7.134;2023-07-29T09:58:11;4.25;;;2.65;;
20142;SDS011;10509;46.476;7.134;2023-07-29T10:00:37;3.42;;;3.08;;
20142;SDS011;10509;46.476;7.134;2023-07-29T10:03:05;2.60;;;2.40;;
20142;SDS011;10509;46.476;7.134;2023-07-29T10:05:32;2.85;;;2.65;;
20142;SDS011;10509;46.476;7.134;2023-07-29T10:08:00;2.40;;;2.20;;
20142;SDS011;10509;46.476;7.134;2023-07-29T10:10:27;2.85;;;2.17;;
20142;SDS011;10509;46.476;7.134;2023-07-29T10:12:54;2.55;;;2.05;;
20142;SDS011;10509;46.476;7.134;2023-07-29T10:15:20;2.05;;;1.95;;
20142;SDS011;10509;46.476;7.134;2023-07-29T10:17:46;2.42;;;2.22;;
20142;SDS011;10509;46.476;7.134;2023-07-29T10:20:12;3.78;;;3.00;;
20142;SDS011;10509;46.476;7.134;2023-07-29T10:22:39;2.22;;;2.13;;
20142;SDS011;10509;46.476;7.134;2023-07-29T10:25:29;2.65;;;2.28;;
20142;SDS011;10509;46.476;7.134;2023-07-29T10:28:07;1.80;;;1.70;;
20142;SDS011;10509;46.476;7.134;2023-07-29T10:30:33;2.08;;;1.98;;
20142;SDS011;10509;46.476;7.134;2023-07-29T10:33:02;4.18;;;3.78;;
20142;SDS011;10509;46.476;7.134;2023-07-29T10:35:32;2.53;;;2.33;;
20142;SDS011;10509;46.476;7.134;2023-07-29T10:37:59;1.88;;;1.77;;
20142;SDS011;10509;46.476;7.134;2023-07-29T10:40:25;3.85;;;3.55;;
20142;SDS011;10509;46.476;7.134;2023-07-29T10:43:02;4.05;;;3.75;;
20142;SDS011;10509;46.476;7.134;2023-07-29T10:45:36;2.67;;;2.47;;
20142;SDS011;10509;46.476;7.134;2023-07-29T10:51:01;2.22;;;2.03;;
20142;SDS011;10509;46.476;7.134;2023-07-29T10:53:37;2.80;;;2.60;;
20142;SDS011;10509;46.476;7.134;2023-07-29T10:56:03;2.28;;;2.17;;
20142;SDS011;10509;46.476;7.134;2023-07-29T10:58:29;3.08;;;2.45;;
20142;SDS011;10509;46.476;7.134;2023-07-29T11:00:56;3.10;;;2.80;;
20142;SDS011;10509;46.476;7.134;2023-07-29T11:03:22;2.55;;;2.35;;
20142;SDS011;10509;46.476;7.134;2023-07-29T11:05:53;2.60;;;2.03;;
20142;SDS011;10509;46.476;7.134;2023-07-29T11:13:30;3.75;;;2.38;;
20142;SDS011;10509;46.476;7.134;2023-07-29T11:15:57;2.60;;;2.40;;
20142;SDS011;10509;46.476;7.134;2023-07-29T11:18:33;2.35;;;2.15;;
20142;SDS011;10509;46.476;7.134;2023-07-29T11:21:00;2.65;;;2.45;;
20142;SDS011;10509;46.476;7.134;2023-07-29T11:23:32;2.50;;;2.30;;
20142;SDS011;10509;46.476;7.134;2023-07-29T11:25:59;3.67;;;2.33;;
20142;SDS011;10509;46.476;7.134;2023-07-29T11:28:25;2.60;;;2.40;;
20142;SDS011;10509;46.476;7.134;2023-07-29T11:30:51;2.47;;;2.28;;
20142;SDS011;10509;46.476;7.134;2023-07-29T11:33:19;2.80;;;2.60;;
20142;SDS011;10509;46.476;7.134;2023-07-29T11:35:45;2.70;;;2.50;;
20142;SDS011;10509;46.476;7.134;2023-07-29T11:38:14;2.30;;;2.10;;
20142;SDS011;10509;46.476;7.134;2023-07-29T11:40:41;2.88;;;2.67;;
20142;SDS011;10509;46.476;7.134;2023-07-29T11:43:07;3.08;;;2.20;;
20142;SDS011;10509;46.476;7.134;2023-07-29T11:45:33;3.60;;;2.03;;
20142;SDS011;10509;46.476;7.134;2023-07-29T11:48:00;10.77;;;2.83;;
20142;SDS011;10509;46.476;7.134;2023-07-29T11:50:26;4.43;;;2.20;;
20142;SDS011;10509;46.476;7.134;2023-07-29T11:52:52;2.92;;;2.10;;
20142;SDS011;10509;46.476;7.134;2023-07-29T11:55:19;3.75;;;2.55;;
20142;SDS011;10509;46.476;7.134;2023-07-29T11:57:45;3.97;;;2.15;;
20142;SDS011;10509;46.476;7.134;2023-07-29T12:00:16;2.97;;;2.17;;
20142;SDS011;10509;46.476;7.134;2023-07-29T12:02:43;5.10;;;1.95;;
20142;SDS011;10509;46.476;7.134;2023-07-29T12:05:10;3.45;;;2.13;;
20142;SDS011;10509;46.476;7.134;2023-07-29T12:07:38;3.03;;;2.10;;
20142;SDS011;10509;46.476;7.134;2023-07-29T12:10:04;2.78;;;1.77;;
20142;SDS011;10509;46.476;7.134;2023-07-29T12:12:31;1.90;;;1.55;;
20142;SDS011;10509;46.476;7.134;2023-07-29T12:14:57;1.80;;;1.70;;
20142;SDS011;10509;46.476;7.134;2023-07-29T12:17:23;2.95;;;2.20;;
20142;SDS011;10509;46.476;7.134;2023-07-29T12:19:49;4.50;;;2.78;;
20142;SDS011;10509;46.476;7.134;2023-07-29T12:22:17;2.80;;;2.50;;
20142;SDS011;10509;46.476;7.134;2023-07-29T12:24:43;2.17;;;1.98;;
20142;SDS011;10509;46.476;7.134;2023-07-29T12:27:10;3.20;;;1.85;;
20142;SDS011;10509;46.476;7.134;2023-07-29T12:29:41;2.28;;;2.10;;
20142;SDS011;10509;46.476;7.134;2023-07-29T12:32:08;2.85;;;2.10;;
20142;SDS011;10509;46.476;7.134;2023-07-29T12:34:34;1.90;;;1.80;;
20142;SDS011;10509;46.476;7.134;2023-07-29T12:37:02;3.38;;;2.30;;
20142;SDS011;10509;46.476;7.134;2023-07-29T12:39:29;2.40;;;2.17;;
20142;SDS011;10509;46.476;7.134;2023-07-29T12:41:56;2.42;;;2.28;;
20142;SDS011;10509;46.476;7.134;2023-07-29T12:44:23;3.50;;;1.77;;
20142;SDS011;10509;46.476;7.134;2023-07-29T12:46:49;2.10;;;1.90;;
20142;SDS011;10509;46.476;7.134;2023-07-29T12:49:15;2.47;;;2.28;;
20142;SDS011;10509;46.476;7.134;2023-07-29T12:51:42;2.30;;;2.20;;
20142;SDS011;10509;46.476;7.134;2023-07-29T12:54:08;2.55;;;2.35;;
20142;SDS011;10509;46.476;7.134;2023-07-29T12:56:34;2.28;;;1.98;;
20142;SDS011;10509;46.476;7.134;2023-07-29T12:59:00;2.92;;;2.60;;
20142;SDS011;10509;46.476;7.134;2023-07-29T13:01:26;3.88;;;2.67;;
20142;SDS011;10509;46.476;7.134;2023-07-29T13:03:53;2.80;;;2.60;;
20142;SDS011;10509;46.476;7.134;2023-07-29T13:06:19;3.55;;;2.97;;
20142;SDS011;10509;46.476;7.134;2023-07-29T13:08:46;3.08;;;2.80;;
20142;SDS011;10509;46.476;7.134;2023-07-29T13:11:12;2.90;;;2.70;;
20142;SDS011;10509;46.476;7.134;2023-07-29T13:13:38;3.30;;;3.00;;
20142;SDS011;10509;46.476;7.134;2023-07-29T13:16:04;2.63;;;2.42;;
20142;SDS011;10509;46.476;7.134;2023-07-29T13:18:31;2.53;;;2.33;;
20142;SDS011;10509;46.476;7.134;2023-07-29T13:20:57;2.70;;;2.50;;
20142;SDS011;10509;46.476;7.134;2023-07-29T13:23:24;2.75;;;2.55;;
20142;SDS011;10509;46.476;7.134;2023-07-29T13:25:50;4.53;;;2.70;;
20142;SDS011;10509;46.476;7.134;2023-07-29T13:28:16;2.80;;;2.25;;
20142;SDS011;10509;46.476;7.134;2023-07-29T13:30:43;2.17;;;1.98;;
20142;SDS011;10509;46.476;7.134;2023-07-29T13:33:10;2.78;;;2.58;;
20142;SDS011;10509;46.476;7.134;2023-07-29T13:35:36;2.75;;;2.50;;
20142;SDS011;10509;46.476;7.134;2023-07-29T13:38:02;3.15;;;2.95;;
20142;SDS011;10509;46.476;7.134;2023-07-29T13:40:28;2.70;;;2.50;;
20142;SDS011;10509;46.476;7.134;2023-07-29T13:42:54;3.38;;;3.10;;
20142;SDS011;10509;46.476;7.134;2023-07-29T13:45:20;3.83;;;2.92;;
20142;SDS011;10509;46.476;7.134;2023-07-29T13:47:47;2.83;;;2.50;;
20142;SDS011;10509;46.476;7.134;2023-07-29T13:50:13;3.63;;;2.95;;
20142;SDS011;10509;46.476;7.134;2023-07-29T13:52:39;3.10;;;2.60;;
20142;SDS011;10509;46.476;7.134;2023-07-29T13:55:05;2.92;;;2.70;;
20142;SDS011;10509;46.476;7.134;2023-07-29T13:57:32;3.20;;;2.85;;
20142;SDS011;10509;46.476;7.134;2023-07-29T13:59:58;2.80;;;2.60;;
20142;SDS011;10509;46.476;7.134;2023-07-29T14:02:24;2.58;;;2.38;;
20142;SDS011;10509;46.476;7.134;2023-07-29T14:04:55;2.58;;;2.38;;
20142;SDS011;10509;46.476;7.134;2023-07-29T14:07:21;3.00;;;2.70;;
20142;SDS011;10509;46.476;7.134;2023-07-29T14:09:47;2.58;;;2.38;;
20142;SDS011;10509;46.476;7.134;2023-07-29T14:12:14;2.50;;;2.30;;
20142;SDS011;10509;46.476;7.134;2023-07-29T14:14:43;5.25;;;3.00;;
20142;SDS011;10509;46.476;7.134;2023-07-29T14:17:09;3.33;;;2.50;;
20142;SDS011;10509;46.476;7.134;2023-07-29T14:19:38;2.83;;;2.63;;
20142;SDS011;10509;46.476;7.134;2023-07-29T14:22:04;2.95;;;2.70;;
20142;SDS011;10509;46.476;7.134;2023-07-29T14:24:30;3.30;;;3.00;;
20142;SDS011;10509;46.476;7.134;2023-07-29T14:26:57;3.33;;;2.70;;
20142;SDS011;10509;46.476;7.134;2023-07-29T14:29:23;3.15;;;2.85;;
20142;SDS011;10509;46.476;7.134;2023-07-29T14:31:49;3.43;;;3.13;;
20142;SDS011;10509;46.476;7.134;2023-07-29T14:34:15;2.60;;;2.40;;
20142;SDS011;10509;46.476;7.134;2023-07-29T14:36:41;2.90;;;2.60;;
20142;SDS011;10509;46.476;7.134;2023-07-29T14:39:07;2.57;;;2.37;;
20142;SDS011;10509;46.476;7.134;2023-07-29T14:41:33;2.80;;;2.57;;
20142;SDS011;10509;46.476;7.134;2023-07-29T14:43:59;2.43;;;2.23;;
20142;SDS011;10509;46.476;7.134;2023-07-29T14:46:25;2.73;;;2.53;;
20142;SDS011;10509;46.476;7.134;2023-07-29T14:48:51;2.70;;;2.50;;
20142;SDS011;10509;46.476;7.134;2023-07-29T14:51:17;2.83;;;2.63;;
20142;SDS011;10509;46.476;7.134;2023-07-29T14:53:44;2.80;;;2.60;;
20142;SDS011;10509;46.476;7.134;2023-07-29T14:56:10;3.37;;;3.07;;
20142;SDS011;10509;46.476;7.134;2023-07-29T14:58:36;2.90;;;2.70;;
20142;SDS011;10509;46.476;7.134;2023-07-29T15:01:02;4.03;;;2.87;;
20142;SDS011;10509;46.476;7.134;2023-07-29T15:03:28;2.87;;;2.67;;
20142;SDS011;10509;46.476;7.134;2023-07-29T15:05:54;2.90;;;2.53;;